sensor_id;sensor_type;location;lat;lon;timestamp;temperature;humidity
48208;DHT22;33997;53.278;9.708;2023-02-21T00:00:54;8.80;99.90
48208;DHT22;33997;53.278;9.708;2023-02-21T00:03:38;8.80;99.90
48208;DHT22;33997;53.278;9.708;2023-02-21T00:06:22;8.80;99.90
48208;DHT22;33997;53.278;9.708;2023-02-21T00:09:07;8.80;99.90
48208;DHT22;33997;53.278;9.708;2023-02-21T00:11:51;8.80;99.90
48208;DHT22;33997;53.278;9.708;2023-02-21T00:14:36;8.80;99.90
48208;DHT22;33997;53.278;9.708;2023-02-21T00:17:21;8.80;99.90
48208;DHT22;33997;53.278;9.708;2023-02-21T00:20:05;8.80;99.90
48208;DHT22;33997;53.278;9.708;2023-02-21T00:22:50;8.80;99.90
48208;DHT22;33997;53.278;9.708;2023-02-21T00:25:34;8.80;99.90
48208;DHT22;33997;53.278;9.708;2023-02-21T00:28:18;8.80;99.90
48208;DHT22;33997;53.278;9.708;2023-02-21T00:31:03;8.80;99.90
48208;DHT22;33997;53.278;9.708;2023-02-21T00:33:47;8.80;99.90
48208;DHT22;33997;53.278;9.708;2023-02-21T00:36:31;8.80;99.90
48208;DHT22;33997;53.278;9.708;2023-02-21T00:39:15;8.80;99.90
48208;DHT22;33997;53.278;9.708;2023-02-21T00:42:00;8.80;99.90
48208;DHT22;33997;53.278;9.708;2023-02-21T00:44:44;8.80;99.90
48208;DHT22;33997;53.278;9.708;2023-02-21T00:47:28;8.80;99.90
48208;DHT22;33997;53.278;9.708;2023-02-21T00:50:13;8.80;99.90
48208;DHT22;33997;53.278;9.708;2023-02-21T00:52:57;8.80;99.90
48208;DHT22;33997;53.278;9.708;2023-02-21T00:55:41;8.80;99.90
48208;DHT22;33997;53.278;9.708;2023-02-21T00:58:25;8.80;99.90
48208;DHT22;33997;53.278;9.708;2023-02-21T01:01:09;8.80;99.90
48208;DHT22;33997;53.278;9.708;2023-02-21T01:06:28;8.80;99.90
48208;DHT22;33997;53.278;9.708;2023-02-21T01:09:12;8.80;99.90
48208;DHT22;33997;53.278;9.708;2023-02-21T01:11:56;8.80;99.90
48208;DHT22;33997;53.278;9.708;2023-02-21T01:14:40;8.80;99.90
48208;DHT22;33997;53.278;9.708;2023-02-21T01:17:25;8.80;99.90
48208;DHT22;33997;53.278;9.708;2023-02-21T01:20:09;8.80;99.90
48208;DHT22;33997;53.278;9.708;2023-02-21T01:22:53;8.80;99.90
48208;DHT22;33997;53.278;9.708;2023-02-21T01:25:37;8.80;99.90
48208;DHT22;33997;53.278;9.708;2023-02-21T01:28:21;8.80;99.90
48208;DHT22;33997;53.278;9.708;2023-02-21T01:31:05;8.80;99.90
48208;DHT22;33997;53.278;9.708;2023-02-21T01:33:49;8.80;99.90
48208;DHT22;33997;53.278;9.708;2023-02-21T01:36:33;8.70;99.90
48208;DHT22;33997;53.278;9.708;2023-02-21T01:39:17;8.80;99.90
48208;DHT22;33997;53.278;9.708;2023-02-21T01:42:02;8.80;99.90
48208;DHT22;33997;53.278;9.708;2023-02-21T01:44:47;8.80;99.90
48208;DHT22;33997;53.278;9.708;2023-02-21T01:47:32;8.70;99.90
48208;DHT22;33997;53.278;9.708;2023-02-21T01:50:26;8.70;99.90
48208;DHT22;33997;53.278;9.708;2023-02-21T01:53:15;8.70;99.90
48208;DHT22;33997;53.278;9.708;2023-02-21T01:56:01;8.70;99.90
48208;DHT22;33997;53.278;9.708;2023-02-21T01:58:38;8.70;99.90
48208;DHT22;33997;53.278;9.708;2023-02-21T02:01:50;8.70;99.90
48208;DHT22;33997;53.278;9.708;2023-02-21T02:04:32;8.80;99.90
48208;DHT22;33997;53.278;9.708;2023-02-21T02:07:17;8.70;99.90
48208;DHT22;33997;53.278;9.708;2023-02-21T02:10:01;8.70;99.90
48208;DHT22;33997;53.278;9.708;2023-02-21T02:13:12;8.70;99.90
48208;DHT22;33997;53.278;9.708;2023-02-21T02:15:48;8.70;99.90
48208;DHT22;33997;53.278;9.708;2023-02-21T02:18:38;8.60;99.90
48208;DHT22;33997;53.278;9.708;2023-02-21T02:21:32;8.70;99.90
48208;DHT22;33997;53.278;9.708;2023-02-21T02:24:30;8.70;99.90
48208;DHT22;33997;53.278;9.708;2023-02-21T02:30:03;8.70;99.90
48208;DHT22;33997;53.278;9.708;2023-02-21T02:35:52;8.60;99.90
48208;DHT22;33997;53.278;9.708;2023-02-21T02:38:33;8.60;99.90
48208;DHT22;33997;53.278;9.708;2023-02-21T02:41:29;8.60;99.90
48208;DHT22;33997;53.278;9.708;2023-02-21T02:44:05;8.60;99.90
48208;DHT22;33997;53.278;9.708;2023-02-21T02:46:36;8.60;99.90
48208;DHT22;33997;53.278;9.708;2023-02-21T02:49:11;8.60;99.90
48208;DHT22;33997;53.278;9.708;2023-02-21T02:51:38;8.60;99.90
48208;DHT22;33997;53.278;9.708;2023-02-21T02:54:04;8.60;99.90
48208;DHT22;33997;53.278;9.708;2023-02-21T02:56:30;8.60;99.90
48208;DHT22;33997;53.278;9.708;2023-02-21T02:59:11;8.60;99.90
48208;DHT22;33997;53.278;9.708;2023-02-21T03:01:52;8.60;99.90
48208;DHT22;33997;53.278;9.708;2023-02-21T03:10:27;8.60;99.90
48208;DHT22;33997;53.278;9.708;2023-02-21T03:15:56;8.60;99.90
48208;DHT22;33997;53.278;9.708;2023-02-21T03:20:59;8.50;99.90
48208;DHT22;33997;53.278;9.708;2023-02-21T03:23:27;8.50;99.90
48208;DHT22;33997;53.278;9.708;2023-02-21T03:25:55;8.50;99.90
48208;DHT22;33997;53.278;9.708;2023-02-21T03:28:23;8.50;99.90
48208;DHT22;33997;53.278;9.708;2023-02-21T03:30:52;8.50;99.90
48208;DHT22;33997;53.278;9.708;2023-02-21T03:33:18;8.50;99.90
48208;DHT22;33997;53.278;9.708;2023-02-21T03:35:44;8.50;99.90
48208;DHT22;33997;53.278;9.708;2023-02-21T03:38:10;8.50;99.90
48208;DHT22;33997;53.278;9.708;2023-02-21T03:40:35;8.50;99.90
48208;DHT22;33997;53.278;9.708;2023-02-21T03:43:03;8.50;99.90
48208;DHT22;33997;53.278;9.708;2023-02-21T03:45:31;8.50;99.90
48208;DHT22;33997;53.278;9.708;2023-02-21T03:47:57;8.50;99.90
48208;DHT22;33997;53.278;9.708;2023-02-21T03:50:22;8.50;99.90
48208;DHT22;33997;53.278;9.708;2023-02-21T03:52:48;8.40;99.90
48208;DHT22;33997;53.278;9.708;2023-02-21T03:55:13;8.50;99.90
48208;DHT22;33997;53.278;9.708;2023-02-21T03:57:39;8.40;99.90
48208;DHT22;33997;53.278;9.708;2023-02-21T04:00:05;8.40;99.90
48208;DHT22;33997;53.278;9.708;2023-02-21T04:02:31;8.50;99.90
48208;DHT22;33997;53.278;9.708;2023-02-21T04:04:56;8.40;99.90
48208;DHT22;33997;53.278;9.708;2023-02-21T04:07:22;8.40;99.90
48208;DHT22;33997;53.278;9.708;2023-02-21T04:09:48;8.40;99.90
48208;DHT22;33997;53.278;9.708;2023-02-21T04:12:14;8.50;99.90
48208;DHT22;33997;53.278;9.708;2023-02-21T04:14:39;8.40;99.90
48208;DHT22;33997;53.278;9.708;2023-02-21T04:17:05;8.40;99.90
48208;DHT22;33997;53.278;9.708;2023-02-21T04:19:31;8.40;99.90
48208;DHT22;33997;53.278;9.708;2023-02-21T04:21:56;8.40;99.90
48208;DHT22;33997;53.278;9.708;2023-02-21T04:24:22;8.40;99.90
48208;DHT22;33997;53.278;9.708;2023-02-21T04:26:47;8.40;99.90
48208;DHT22;33997;53.278;9.708;2023-02-21T04:29:13;8.40;99.90
48208;DHT22;33997;53.278;9.708;2023-02-21T04:31:38;8.40;99.90
48208;DHT22;33997;53.278;9.708;2023-02-21T04:34:04;8.40;99.90
48208;DHT22;33997;53.278;9.708;2023-02-21T04:36:30;8.40;99.90
48208;DHT22;33997;53.278;9.708;2023-02-21T04:38:55;8.40;99.90
48208;DHT22;33997;53.278;9.708;2023-02-21T04:41:21;8.40;99.90
48208;DHT22;33997;53.278;9.708;2023-02-21T04:43:47;8.40;99.90
48208;DHT22;33997;53.278;9.708;2023-02-21T04:46:15;8.40;99.90
48208;DHT22;33997;53.278;9.708;2023-02-21T04:48:42;8.40;99.90
48208;DHT22;33997;53.278;9.708;2023-02-21T04:51:09;8.40;99.90
48208;DHT22;33997;53.278;9.708;2023-02-21T04:53:35;8.30;99.90
48208;DHT22;33997;53.278;9.708;2023-02-21T04:56:00;8.30;99.90
48208;DHT22;33997;53.278;9.708;2023-02-21T04:58:25;8.30;99.90
48208;DHT22;33997;53.278;9.708;2023-02-21T05:00:51;8.30;99.90
48208;DHT22;33997;53.278;9.708;2023-02-21T05:03:16;8.30;99.90
48208;DHT22;33997;53.278;9.708;2023-02-21T05:05:42;8.30;99.90
48208;DHT22;33997;53.278;9.708;2023-02-21T05:08:08;8.30;99.90
48208;DHT22;33997;53.278;9.708;2023-02-21T05:10:33;8.30;99.90
48208;DHT22;33997;53.278;9.708;2023-02-21T05:12:59;8.30;99.90
48208;DHT22;33997;53.278;9.708;2023-02-21T05:15:24;8.30;99.90
48208;DHT22;33997;53.278;9.708;2023-02-21T05:20:26;8.30;99.90
48208;DHT22;33997;53.278;9.708;2023-02-21T05:25:27;8.30;99.90
48208;DHT22;33997;53.278;9.708;2023-02-21T05:30:27;8.30;99.90
48208;DHT22;33997;53.278;9.708;2023-02-21T05:32:53;8.30;99.90
48208;DHT22;33997;53.278;9.708;2023-02-21T05:35:18;8.30;99.90
48208;DHT22;33997;53.278;9.708;2023-02-21T05:37:44;8.30;99.90
48208;DHT22;33997;53.278;9.708;2023-02-21T05:40:11;8.30;99.90
48208;DHT22;33997;53.278;9.708;2023-02-21T05:42:37;8.20;99.90
48208;DHT22;33997;53.278;9.708;2023-02-21T05:45:02;8.20;99.90
48208;DHT22;33997;53.278;9.708;2023-02-21T05:47:32;8.20;99.90
48208;DHT22;33997;53.278;9.708;2023-02-21T05:49:58;8.20;99.90
48208;DHT22;33997;53.278;9.708;2023-02-21T05:52:24;8.20;99.90
48208;DHT22;33997;53.278;9.708;2023-02-21T05:54:49;8.20;99.90
48208;DHT22;33997;53.278;9.708;2023-02-21T05:57:15;8.20;99.90
48208;DHT22;33997;53.278;9.708;2023-02-21T05:59:40;8.20;99.90
48208;DHT22;33997;53.278;9.708;2023-02-21T06:02:06;8.20;99.90
48208;DHT22;33997;53.278;9.708;2023-02-21T06:04:31;8.20;99.90
48208;DHT22;33997;53.278;9.708;2023-02-21T06:06:57;8.20;99.90
48208;DHT22;33997;53.278;9.708;2023-02-21T06:09:22;8.20;99.90
48208;DHT22;33997;53.278;9.708;2023-02-21T06:11:48;8.10;99.90
48208;DHT22;33997;53.278;9.708;2023-02-21T06:14:16;8.20;99.90
48208;DHT22;33997;53.278;9.708;2023-02-21T06:16:41;8.20;99.90
48208;DHT22;33997;53.278;9.708;2023-02-21T06:19:08;8.20;99.90
48208;DHT22;33997;53.278;9.708;2023-02-21T06:21:34;8.20;99.90
48208;DHT22;33997;53.278;9.708;2023-02-21T06:24:00;8.20;99.90
48208;DHT22;33997;53.278;9.708;2023-02-21T06:26:26;8.20;99.90
48208;DHT22;33997;53.278;9.708;2023-02-21T06:28:52;8.20;99.90
48208;DHT22;33997;53.278;9.708;2023-02-21T06:31:19;8.20;99.90
48208;DHT22;33997;53.278;9.708;2023-02-21T06:33:46;8.20;99.90
48208;DHT22;33997;53.278;9.708;2023-02-21T06:36:20;8.20;99.90
48208;DHT22;33997;53.278;9.708;2023-02-21T06:38:48;8.20;99.90
48208;DHT22;33997;53.278;9.708;2023-02-21T06:41:19;8.10;99.90
48208;DHT22;33997;53.278;9.708;2023-02-21T06:43:44;8.10;99.90
48208;DHT22;33997;53.278;9.708;2023-02-21T06:46:15;8.10;99.90
48208;DHT22;33997;53.278;9.708;2023-02-21T06:48:41;8.10;99.90
48208;DHT22;33997;53.278;9.708;2023-02-21T06:51:06;8.10;99.90
48208;DHT22;33997;53.278;9.708;2023-02-21T06:53:39;8.10;99.90
48208;DHT22;33997;53.278;9.708;2023-02-21T06:56:04;8.10;99.90
48208;DHT22;33997;53.278;9.708;2023-02-21T06:58:30;8.10;99.90
48208;DHT22;33997;53.278;9.708;2023-02-21T07:00:56;8.10;99.90
48208;DHT22;33997;53.278;9.708;2023-02-21T07:03:21;8.10;99.90
48208;DHT22;33997;53.278;9.708;2023-02-21T07:05:47;8.10;99.90
48208;DHT22;33997;53.278;9.708;2023-02-21T07:08:12;8.10;99.90
48208;DHT22;33997;53.278;9.708;2023-02-21T07:10:38;8.10;99.90
48208;DHT22;33997;53.278;9.708;2023-02-21T07:13:03;8.10;99.90
48208;DHT22;33997;53.278;9.708;2023-02-21T07:15:29;8.10;99.90
48208;DHT22;33997;53.278;9.708;2023-02-21T07:17:54;8.10;99.90
48208;DHT22;33997;53.278;9.708;2023-02-21T07:20:20;8.10;99.90
48208;DHT22;33997;53.278;9.708;2023-02-21T07:22:45;8.10;99.90
48208;DHT22;33997;53.278;9.708;2023-02-21T07:25:20;8.10;99.90
48208;DHT22;33997;53.278;9.708;2023-02-21T07:27:47;8.10;99.90
48208;DHT22;33997;53.278;9.708;2023-02-21T07:30:12;8.10;99.90
48208;DHT22;33997;53.278;9.708;2023-02-21T07:32:38;8.10;99.90
48208;DHT22;33997;53.278;9.708;2023-02-21T07:35:04;8.10;99.90
48208;DHT22;33997;53.278;9.708;2023-02-21T07:37:30;8.10;99.90
48208;DHT22;33997;53.278;9.708;2023-02-21T07:39:55;8.10;99.90
48208;DHT22;33997;53.278;9.708;2023-02-21T07:42:21;8.10;99.90
48208;DHT22;33997;53.278;9.708;2023-02-21T07:44:46;8.10;99.90
48208;DHT22;33997;53.278;9.708;2023-02-21T07:47:12;8.10;99.90
48208;DHT22;33997;53.278;9.708;2023-02-21T07:49:38;8.10;99.90
48208;DHT22;33997;53.278;9.708;2023-02-21T07:52:04;8.10;99.90
48208;DHT22;33997;53.278;9.708;2023-02-21T07:54:30;8.10;99.90
48208;DHT22;33997;53.278;9.708;2023-02-21T07:56:55;8.10;99.90
48208;DHT22;33997;53.278;9.708;2023-02-21T07:59:21;8.20;99.90
48208;DHT22;33997;53.278;9.708;2023-02-21T08:01:46;8.20;99.90
48208;DHT22;33997;53.278;9.708;2023-02-21T08:04:12;8.20;99.90
48208;DHT22;33997;53.278;9.708;2023-02-21T08:06:37;8.20;99.90
48208;DHT22;33997;53.278;9.708;2023-02-21T08:09:03;8.20;99.90
48208;DHT22;33997;53.278;9.708;2023-02-21T08:11:29;8.10;99.90
48208;DHT22;33997;53.278;9.708;2023-02-21T08:13:54;8.20;99.90
48208;DHT22;33997;53.278;9.708;2023-02-21T08:16:20;8.20;99.90
48208;DHT22;33997;53.278;9.708;2023-02-21T08:18:48;8.20;99.90
48208;DHT22;33997;53.278;9.708;2023-02-21T08:21:17;8.20;99.90
48208;DHT22;33997;53.278;9.708;2023-02-21T08:23:43;8.20;99.90
48208;DHT22;33997;53.278;9.708;2023-02-21T08:26:08;8.20;99.90
48208;DHT22;33997;53.278;9.708;2023-02-21T08:28:34;8.20;99.90
48208;DHT22;33997;53.278;9.708;2023-02-21T08:31:01;8.30;99.90
48208;DHT22;33997;53.278;9.708;2023-02-21T08:33:27;8.30;99.90
48208;DHT22;33997;53.278;9.708;2023-02-21T08:35:53;8.30;99.90
48208;DHT22;33997;53.278;9.708;2023-02-21T08:38:18;8.30;99.90
48208;DHT22;33997;53.278;9.708;2023-02-21T08:40:44;8.30;99.90
48208;DHT22;33997;53.278;9.708;2023-02-21T08:43:10;8.40;99.90
48208;DHT22;33997;53.278;9.708;2023-02-21T08:45:36;8.50;99.90
48208;DHT22;33997;53.278;9.708;2023-02-21T08:48:02;8.50;99.90
48208;DHT22;33997;53.278;9.708;2023-02-21T08:50:28;8.50;99.90
48208;DHT22;33997;53.278;9.708;2023-02-21T08:52:54;8.60;99.90
48208;DHT22;33997;53.278;9.708;2023-02-21T08:55:20;8.60;99.90
48208;DHT22;33997;53.278;9.708;2023-02-21T08:57:51;8.60;99.90
48208;DHT22;33997;53.278;9.708;2023-02-21T09:00:19;8.60;99.90
48208;DHT22;33997;53.278;9.708;2023-02-21T09:02:51;8.50;99.90
48208;DHT22;33997;53.278;9.708;2023-02-21T09:05:19;8.50;99.90
48208;DHT22;33997;53.278;9.708;2023-02-21T09:07:48;8.50;99.90
48208;DHT22;33997;53.278;9.708;2023-02-21T09:10:13;8.50;99.90
48208;DHT22;33997;53.278;9.708;2023-02-21T09:12:39;8.50;99.90
48208;DHT22;33997;53.278;9.708;2023-02-21T09:15:05;8.50;99.90
48208;DHT22;33997;53.278;9.708;2023-02-21T09:17:31;8.60;99.90
48208;DHT22;33997;53.278;9.708;2023-02-21T09:20:02;8.60;99.90
48208;DHT22;33997;53.278;9.708;2023-02-21T09:22:29;8.60;99.90
48208;DHT22;33997;53.278;9.708;2023-02-21T09:24:56;8.60;99.90
48208;DHT22;33997;53.278;9.708;2023-02-21T09:27:21;8.60;99.90
48208;DHT22;33997;53.278;9.708;2023-02-21T09:30:04;8.60;99.90
48208;DHT22;33997;53.278;9.708;2023-02-21T09:32:30;8.60;99.90
48208;DHT22;33997;53.278;9.708;2023-02-21T09:34:56;8.60;99.90
48208;DHT22;33997;53.278;9.708;2023-02-21T09:37:21;8.60;99.90
48208;DHT22;33997;53.278;9.708;2023-02-21T09:39:47;8.60;99.90
48208;DHT22;33997;53.278;9.708;2023-02-21T09:42:17;8.60;99.90
48208;DHT22;33997;53.278;9.708;2023-02-21T09:44:43;8.50;99.90
48208;DHT22;33997;53.278;9.708;2023-02-21T09:47:14;8.60;99.90
48208;DHT22;33997;53.278;9.708;2023-02-21T09:49:42;8.60;99.90
48208;DHT22;33997;53.278;9.708;2023-02-21T09:52:20;8.70;99.90
48208;DHT22;33997;53.278;9.708;2023-02-21T09:54:53;8.70;99.90
48208;DHT22;33997;53.278;9.708;2023-02-21T09:57:20;8.70;99.90
48208;DHT22;33997;53.278;9.708;2023-02-21T09:59:47;8.70;99.90
48208;DHT22;33997;53.278;9.708;2023-02-21T10:02:45;8.70;99.90
48208;DHT22;33997;53.278;9.708;2023-02-21T10:07:52;8.80;99.90
48208;DHT22;33997;53.278;9.708;2023-02-21T10:15:57;8.90;99.90
48208;DHT22;33997;53.278;9.708;2023-02-21T10:18:37;9.00;99.90
48208;DHT22;33997;53.278;9.708;2023-02-21T10:21:13;8.90;99.90
48208;DHT22;33997;53.278;9.708;2023-02-21T10:23:45;8.90;99.90
48208;DHT22;33997;53.278;9.708;2023-02-21T10:26:16;8.90;99.90
48208;DHT22;33997;53.278;9.708;2023-02-21T10:28:43;8.90;99.90
48208;DHT22;33997;53.278;9.708;2023-02-21T10:31:20;9.00;99.90
48208;DHT22;33997;53.278;9.708;2023-02-21T10:33:46;9.00;99.90
48208;DHT22;33997;53.278;9.708;2023-02-21T10:36:17;9.00;99.90
48208;DHT22;33997;53.278;9.708;2023-02-21T10:38:54;9.10;99.90
48208;DHT22;33997;53.278;9.708;2023-02-21T10:41:22;9.10;99.90
48208;DHT22;33997;53.278;9.708;2023-02-21T10:43:51;9.10;99.90
48208;DHT22;33997;53.278;9.708;2023-02-21T10:46:30;9.00;99.90
48208;DHT22;33997;53.278;9.708;2023-02-21T10:52:12;9.10;99.90
48208;DHT22;33997;53.278;9.708;2023-02-21T10:54:38;9.10;99.90
48208;DHT22;33997;53.278;9.708;2023-02-21T10:57:07;9.00;99.90
48208;DHT22;33997;53.278;9.708;2023-02-21T10:59:38;9.00;99.90
48208;DHT22;33997;53.278;9.708;2023-02-21T11:02:31;9.10;99.90
48208;DHT22;33997;53.278;9.708;2023-02-21T11:05:11;9.00;99.90
48208;DHT22;33997;53.278;9.708;2023-02-21T11:07:37;9.10;99.90
48208;DHT22;33997;53.278;9.708;2023-02-21T11:10:24;9.00;99.90
48208;DHT22;33997;53.278;9.708;2023-02-21T11:13:15;9.00;99.90
48208;DHT22;33997;53.278;9.708;2023-02-21T11:15:41;9.10;99.90
48208;DHT22;33997;53.278;9.708;2023-02-21T11:18:17;9.10;99.90
48208;DHT22;33997;53.278;9.708;2023-02-21T11:20:43;9.00;99.90
48208;DHT22;33997;53.278;9.708;2023-02-21T11:23:24;9.00;99.90
48208;DHT22;33997;53.278;9.708;2023-02-21T11:26:13;9.10;99.90
48208;DHT22;33997;53.278;9.708;2023-02-21T11:28:44;9.10;99.90
48208;DHT22;33997;53.278;9.708;2023-02-21T11:31:29;9.00;99.90
48208;DHT22;33997;53.278;9.708;2023-02-21T11:34:00;9.00;99.90
48208;DHT22;33997;53.278;9.708;2023-02-21T11:36:30;9.00;99.90
48208;DHT22;33997;53.278;9.708;2023-02-21T11:39:18;9.00;99.90
48208;DHT22;33997;53.278;9.708;2023-02-21T11:41:47;9.10;99.90
48208;DHT22;33997;53.278;9.708;2023-02-21T11:44:23;9.10;99.90
48208;DHT22;33997;53.278;9.708;2023-02-21T11:46:54;9.10;99.90
48208;DHT22;33997;53.278;9.708;2023-02-21T11:49:42;9.10;99.90
48208;DHT22;33997;53.278;9.708;2023-02-21T11:52:14;9.10;99.90
48208;DHT22;33997;53.278;9.708;2023-02-21T11:54:42;9.10;99.90
48208;DHT22;33997;53.278;9.708;2023-02-21T11:57:32;9.10;99.90
48208;DHT22;33997;53.278;9.708;2023-02-21T12:03:11;9.10;99.90
48208;DHT22;33997;53.278;9.708;2023-02-21T12:06:04;9.10;99.90
48208;DHT22;33997;53.278;9.708;2023-02-21T12:08:39;9.10;99.90
48208;DHT22;33997;53.278;9.708;2023-02-21T12:14:31;9.20;99.90
48208;DHT22;33997;53.278;9.708;2023-02-21T12:17:11;9.20;99.90
48208;DHT22;33997;53.278;9.708;2023-02-21T12:25:54;9.20;99.90
48208;DHT22;33997;53.278;9.708;2023-02-21T12:28:43;9.30;99.90
48208;DHT22;33997;53.278;9.708;2023-02-21T12:34:01;9.30;99.90
48208;DHT22;33997;53.278;9.708;2023-02-21T12:42:27;9.40;99.90
48208;DHT22;33997;53.278;9.708;2023-02-21T12:45:22;9.30;99.90
48208;DHT22;33997;53.278;9.708;2023-02-21T12:47:52;9.40;99.90
48208;DHT22;33997;53.278;9.708;2023-02-21T12:50:22;9.40;99.80
48208;DHT22;33997;53.278;9.708;2023-02-21T12:53:15;9.40;99.70
48208;DHT22;33997;53.278;9.708;2023-02-21T12:55:45;9.50;99.70
48208;DHT22;33997;53.278;9.708;2023-02-21T12:58:29;9.50;99.60
48208;DHT22;33997;53.278;9.708;2023-02-21T13:01:00;9.50;99.80
48208;DHT22;33997;53.278;9.708;2023-02-21T13:03:47;9.50;99.80
48208;DHT22;33997;53.278;9.708;2023-02-21T13:11:36;9.60;99.70
48208;DHT22;33997;53.278;9.708;2023-02-21T13:14:10;9.60;99.60
48208;DHT22;33997;53.278;9.708;2023-02-21T13:16:37;9.60;99.70
48208;DHT22;33997;53.278;9.708;2023-02-21T13:19:06;9.50;99.50
48208;DHT22;33997;53.278;9.708;2023-02-21T13:24:37;9.50;99.00
48208;DHT22;33997;53.278;9.708;2023-02-21T13:27:24;9.50;98.90
48208;DHT22;33997;53.278;9.708;2023-02-21T13:30:01;9.40;98.90
48208;DHT22;33997;53.278;9.708;2023-02-21T13:32:27;9.40;99.00
48208;DHT22;33997;53.278;9.708;2023-02-21T13:35:01;9.40;99.00
48208;DHT22;33997;53.278;9.708;2023-02-21T13:37:33;9.30;99.10
48208;DHT22;33997;53.278;9.708;2023-02-21T13:40:05;9.30;99.20
48208;DHT22;33997;53.278;9.708;2023-02-21T13:42:34;9.20;99.30
48208;DHT22;33997;53.278;9.708;2023-02-21T13:45:22;9.20;99.50
48208;DHT22;33997;53.278;9.708;2023-02-21T13:55:37;9.20;99.90
48208;DHT22;33997;53.278;9.708;2023-02-21T14:02:55;9.30;99.90
48208;DHT22;33997;53.278;9.708;2023-02-21T14:05:22;9.30;99.90
48208;DHT22;33997;53.278;9.708;2023-02-21T14:13:06;9.30;99.90
48208;DHT22;33997;53.278;9.708;2023-02-21T14:15:45;9.30;99.90
48208;DHT22;33997;53.278;9.708;2023-02-21T14:18:48;9.50;99.90
48208;DHT22;33997;53.278;9.708;2023-02-21T14:24:21;9.80;99.90
48208;DHT22;33997;53.278;9.708;2023-02-21T14:27:04;9.70;99.40
48208;DHT22;33997;53.278;9.708;2023-02-21T14:30:20;9.70;99.30
48208;DHT22;33997;53.278;9.708;2023-02-21T14:32:47;9.90;99.40
48208;DHT22;33997;53.278;9.708;2023-02-21T14:35:57;9.70;99.10
48208;DHT22;33997;53.278;9.708;2023-02-21T14:38:27;9.60;99.10
48208;DHT22;33997;53.278;9.708;2023-02-21T14:41:33;9.50;99.00
48208;DHT22;33997;53.278;9.708;2023-02-21T14:53:38;9.40;99.20
48208;DHT22;33997;53.278;9.708;2023-02-21T14:56:33;9.40;99.20
48208;DHT22;33997;53.278;9.708;2023-02-21T14:59:31;9.40;99.20
48208;DHT22;33997;53.278;9.708;2023-02-21T15:05:00;9.30;98.80
48208;DHT22;33997;53.278;9.708;2023-02-21T15:12:46;9.40;98.80
48208;DHT22;33997;53.278;9.708;2023-02-21T15:15:39;9.30;98.90
48208;DHT22;33997;53.278;9.708;2023-02-21T15:18:24;9.30;98.80
48208;DHT22;33997;53.278;9.708;2023-02-21T15:21:06;9.30;98.80
48208;DHT22;33997;53.278;9.708;2023-02-21T15:23:32;9.30;98.80
48208;DHT22;33997;53.278;9.708;2023-02-21T15:26:08;9.30;98.90
48208;DHT22;33997;53.278;9.708;2023-02-21T15:28:39;9.30;99.00
48208;DHT22;33997;53.278;9.708;2023-02-21T15:31:09;9.30;99.10
48208;DHT22;33997;53.278;9.708;2023-02-21T15:33:39;9.30;99.10
48208;DHT22;33997;53.278;9.708;2023-02-21T15:36:25;9.30;99.20
48208;DHT22;33997;53.278;9.708;2023-02-21T15:39:06;9.30;99.30
48208;DHT22;33997;53.278;9.708;2023-02-21T15:44:31;9.20;99.40
48208;DHT22;33997;53.278;9.708;2023-02-21T15:47:03;9.10;99.60
48208;DHT22;33997;53.278;9.708;2023-02-21T15:49:39;9.10;99.70
48208;DHT22;33997;53.278;9.708;2023-02-21T15:52:05;9.10;99.80
48208;DHT22;33997;53.278;9.708;2023-02-21T15:54:35;9.10;99.90
48208;DHT22;33997;53.278;9.708;2023-02-21T15:57:23;9.00;99.90
48208;DHT22;33997;53.278;9.708;2023-02-21T16:00:15;9.00;99.90
48208;DHT22;33997;53.278;9.708;2023-02-21T16:02:41;9.00;99.90
48208;DHT22;33997;53.278;9.708;2023-02-21T16:05:26;9.00;99.90
48208;DHT22;33997;53.278;9.708;2023-02-21T16:07:52;9.00;99.90
48208;DHT22;33997;53.278;9.708;2023-02-21T16:10:21;8.90;99.90
48208;DHT22;33997;53.278;9.708;2023-02-21T16:12:54;8.90;99.90
48208;DHT22;33997;53.278;9.708;2023-02-21T16:15:23;8.90;99.90
48208;DHT22;33997;53.278;9.708;2023-02-21T16:18:01;8.80;99.90
48208;DHT22;33997;53.278;9.708;2023-02-21T16:20:39;8.90;99.90
48208;DHT22;33997;53.278;9.708;2023-02-21T16:23:30;8.80;99.90
48208;DHT22;33997;53.278;9.708;2023-02-21T16:26:22;8.80;99.90
48208;DHT22;33997;53.278;9.708;2023-02-21T16:28:53;8.80;99.90
48208;DHT22;33997;53.278;9.708;2023-02-21T16:31:26;8.80;99.90
48208;DHT22;33997;53.278;9.708;2023-02-21T16:33:52;8.80;99.90
48208;DHT22;33997;53.278;9.708;2023-02-21T16:36:23;8.80;99.90
48208;DHT22;33997;53.278;9.708;2023-02-21T16:38:49;8.80;99.90
48208;DHT22;33997;53.278;9.708;2023-02-21T16:41:15;8.80;99.90
48208;DHT22;33997;53.278;9.708;2023-02-21T16:43:40;8.80;99.90
48208;DHT22;33997;53.278;9.708;2023-02-21T16:46:06;8.80;99.90
48208;DHT22;33997;53.278;9.708;2023-02-21T16:48:32;8.70;99.90
48208;DHT22;33997;53.278;9.708;2023-02-21T16:51:02;8.70;99.90
48208;DHT22;33997;53.278;9.708;2023-02-21T16:53:29;8.70;99.90
48208;DHT22;33997;53.278;9.708;2023-02-21T16:55:55;8.70;99.90
48208;DHT22;33997;53.278;9.708;2023-02-21T16:58:28;8.70;99.90
48208;DHT22;33997;53.278;9.708;2023-02-21T17:00:56;8.70;99.90
48208;DHT22;33997;53.278;9.708;2023-02-21T17:03:23;8.70;99.90
48208;DHT22;33997;53.278;9.708;2023-02-21T17:05:51;8.70;99.90
48208;DHT22;33997;53.278;9.708;2023-02-21T17:08:16;8.70;99.90
48208;DHT22;33997;53.278;9.708;2023-02-21T17:10:42;8.60;99.90
48208;DHT22;33997;53.278;9.708;2023-02-21T17:13:08;8.70;99.90
48208;DHT22;33997;53.278;9.708;2023-02-21T17:15:33;8.70;99.90
48208;DHT22;33997;53.278;9.708;2023-02-21T17:17:59;8.70;99.90
48208;DHT22;33997;53.278;9.708;2023-02-21T17:20:25;8.60;99.90
48208;DHT22;33997;53.278;9.708;2023-02-21T17:22:52;8.60;99.90
48208;DHT22;33997;53.278;9.708;2023-02-21T17:25:19;8.60;99.90
48208;DHT22;33997;53.278;9.708;2023-02-21T17:27:45;8.60;99.90
48208;DHT22;33997;53.278;9.708;2023-02-21T17:30:11;8.60;99.90
48208;DHT22;33997;53.278;9.708;2023-02-21T17:32:37;8.60;99.90
48208;DHT22;33997;53.278;9.708;2023-02-21T17:35:03;8.60;99.90
48208;DHT22;33997;53.278;9.708;2023-02-21T17:37:29;8.60;99.90
48208;DHT22;33997;53.278;9.708;2023-02-21T17:39:55;8.50;99.90
48208;DHT22;33997;53.278;9.708;2023-02-21T17:42:22;8.60;99.90
48208;DHT22;33997;53.278;9.708;2023-02-21T17:44:48;8.60;99.90
48208;DHT22;33997;53.278;9.708;2023-02-21T17:47:18;8.50;99.90
48208;DHT22;33997;53.278;9.708;2023-02-21T17:49:46;8.50;99.90
48208;DHT22;33997;53.278;9.708;2023-02-21T17:52:12;8.50;99.90
48208;DHT22;33997;53.278;9.708;2023-02-21T17:54:39;8.50;99.90
48208;DHT22;33997;53.278;9.708;2023-02-21T17:57:05;8.50;99.90
48208;DHT22;33997;53.278;9.708;2023-02-21T17:59:33;8.50;99.90
48208;DHT22;33997;53.278;9.708;2023-02-21T18:01:59;8.50;99.90
48208;DHT22;33997;53.278;9.708;2023-02-21T18:04:25;8.50;99.90
48208;DHT22;33997;53.278;9.708;2023-02-21T18:06:51;8.50;99.90
48208;DHT22;33997;53.278;9.708;2023-02-21T18:09:16;8.50;99.90